DLH985 LSZH-LOWI

Flight info

Callsign DLH985
Flight time 0h 21m
Altitude 21100
Route DEGES N871 MADEB
Aircraft A21N/M-V/N

Departure

Time 2026-05-06 10:51
Airport Zürich Airport (LSZH)

Arrival

Time 2026-05-06 11:12
Airport Innsbruck Airport (LOWI)
Time Latitude Longitude Altitude Speed Heading
2026-05-06 10:40 47.44812 8.55935 1396 ft 0 kts 236°
2026-05-06 10:40 47.44814 8.55940 1396 ft 2 kts 238°
2026-05-06 10:40 47.44822 8.55959 1397 ft 2 kts 236°
2026-05-06 10:41 47.44830 8.55977 1397 ft 2 kts 237°
2026-05-06 10:41 47.44838 8.55992 1397 ft 1 kts 236°
2026-05-06 10:41 47.44840 8.56001 1398 ft 0 kts 289°
2026-05-06 10:41 47.44837 8.56008 1398 ft 0 kts 334°
2026-05-06 10:42 47.44831 8.56012 1398 ft 0 kts 336°
2026-05-06 10:43 47.44835 8.56009 1398 ft 2 kts 336°
2026-05-06 10:43 47.44856 8.55995 1398 ft 5 kts 336°
2026-05-06 10:44 47.44945 8.55895 1397 ft 9 kts 285°
2026-05-06 10:44 47.44955 8.55781 1394 ft 13 kts 276°
2026-05-06 10:44 47.44994 8.55650 1390 ft 15 kts 329°
2026-05-06 10:44 47.45090 8.55580 1391 ft 15 kts 335°
2026-05-06 10:45 47.45186 8.55514 1391 ft 15 kts 335°
2026-05-06 10:45 47.45281 8.55449 1391 ft 15 kts 336°
2026-05-06 10:45 47.45473 8.55320 1390 ft 0 kts 334°
2026-05-06 10:45 47.45499 8.55301 1390 ft 7 kts 335°
2026-05-06 10:46 47.45552 8.55264 1389 ft 9 kts 335°
2026-05-06 10:46 47.45622 8.55216 1387 ft 12 kts 335°
2026-05-06 10:46 47.45708 8.55156 1384 ft 14 kts 335°
2026-05-06 10:46 47.46594 8.54544 1381 ft 14 kts 335°
2026-05-06 10:47 47.46747 8.54442 1380 ft 15 kts 340°
2026-05-06 10:47 47.46849 8.54385 1379 ft 15 kts 336°
2026-05-06 10:47 47.46948 8.54320 1379 ft 14 kts 335°
2026-05-06 10:47 47.47039 8.54254 1379 ft 14 kts 335°
2026-05-06 10:48 47.47136 8.54188 1378 ft 15 kts 335°
2026-05-06 10:48 47.47301 8.54075 1380 ft 35 kts 335°
2026-05-06 10:48 47.47515 8.53926 1382 ft 30 kts 335°
2026-05-06 10:48 47.47595 8.53844 1385 ft 9 kts 307°
2026-05-06 10:49 47.47610 8.53756 1386 ft 6 kts 246°
2026-05-06 10:49 47.47590 8.53686 1386 ft 0 kts 246°
2026-05-06 10:50 47.47583 8.53664 1386 ft 9 kts 246°
2026-05-06 10:50 47.47541 8.53603 1386 ft 9 kts 168°
2026-05-06 10:50 47.47378 8.53716 1383 ft 58 kts 156°
2026-05-06 10:50 47.46793 8.54113 1378 ft 122 kts 152°
2026-05-06 10:51 47.45859 8.54770 1382 ft 175 kts 156°
2026-05-06 10:51 47.44675 8.55562 1635 ft 200 kts 156°
2026-05-06 10:51 47.43420 8.56576 2242 ft 212 kts 141°
2026-05-06 10:51 47.42764 8.58509 2818 ft 226 kts 91°
2026-05-06 10:52 47.43213 8.60796 3205 ft 249 kts 52°
2026-05-06 10:52 47.44427 8.62572 4128 ft 244 kts 42°
2026-05-06 10:52 47.45609 8.64309 5014 ft 243 kts 52°
2026-05-06 10:52 47.46261 8.66594 5707 ft 249 kts 83°
2026-05-06 10:53 47.46367 8.69212 6212 ft 264 kts 89°
2026-05-06 10:53 47.46422 8.71998 6654 ft 282 kts 89°
2026-05-06 10:53 47.46493 8.74955 7076 ft 299 kts 88°
2026-05-06 10:53 47.46589 8.78103 7524 ft 315 kts 88°
2026-05-06 10:54 47.46617 8.81362 8257 ft 319 kts 93°
2026-05-06 10:54 47.46389 8.84603 9083 ft 319 kts 101°
2026-05-06 10:54 47.45957 8.87818 9827 ft 321 kts 104°
2026-05-06 10:54 47.45482 8.91019 10543 ft 324 kts 104°
2026-05-06 10:55 47.45002 8.94283 11238 ft 326 kts 104°
2026-05-06 10:55 47.44534 8.97518 11866 ft 330 kts 104°
2026-05-06 10:55 47.44048 9.00890 12207 ft 344 kts 104°
2026-05-06 10:55 47.43537 9.04428 12472 ft 358 kts 104°
2026-05-06 10:56 47.43007 9.08090 12726 ft 372 kts 104°
2026-05-06 10:56 47.42451 9.11942 12968 ft 386 kts 104°
2026-05-06 10:56 47.41890 9.15826 13349 ft 394 kts 104°
2026-05-06 10:56 47.41438 9.19848 13676 ft 404 kts 99°
2026-05-06 10:57 47.41221 9.24033 14020 ft 414 kts 95°
2026-05-06 10:57 47.41168 9.28159 14476 ft 418 kts 93°
2026-05-06 10:57 47.41142 9.32427 14963 ft 422 kts 93°
2026-05-06 10:57 47.41118 9.36792 15422 ft 425 kts 94°
2026-05-06 10:58 47.41089 9.41133 15836 ft 429 kts 94°
2026-05-06 10:58 47.41052 9.45532 16235 ft 433 kts 94°
2026-05-06 10:58 47.41010 9.49985 16635 ft 436 kts 94°
2026-05-06 10:58 47.40967 9.54435 17023 ft 440 kts 94°
2026-05-06 10:59 47.40919 9.59011 17391 ft 443 kts 95°
2026-05-06 10:59 47.40781 9.63537 17750 ft 445 kts 98°
2026-05-06 10:59 47.40447 9.68061 18139 ft 445 kts 103°
2026-05-06 10:59 47.39926 9.72543 18498 ft 446 kts 105°
2026-05-06 11:00 47.39343 9.77028 18820 ft 448 kts 105°
2026-05-06 11:00 47.38749 9.81509 19150 ft 451 kts 105°
2026-05-06 11:00 47.38145 9.86072 19444 ft 453 kts 106°
2026-05-06 11:00 47.37544 9.90638 19761 ft 455 kts 106°
2026-05-06 11:01 47.36939 9.95211 20085 ft 458 kts 106°
2026-05-06 11:01 47.36335 9.99763 20239 ft 454 kts 105°
2026-05-06 11:01 47.35734 10.04322 19771 ft 450 kts 106°
2026-05-06 11:01 47.35142 10.08783 19046 ft 445 kts 106°
2026-05-06 11:02 47.34564 10.13163 18632 ft 422 kts 106°
2026-05-06 11:02 47.34020 10.17271 18260 ft 396 kts 107°
2026-05-06 11:02 47.33509 10.21114 17833 ft 374 kts 107°
2026-05-06 11:02 47.33016 10.24771 17311 ft 357 kts 107°
2026-05-06 11:03 47.31601 10.35107 15859 ft 342 kts 106°
2026-05-06 11:03 47.31137 10.38487 15375 ft 329 kts 106°
2026-05-06 11:03 47.30697 10.41698 14886 ft 317 kts 106°
2026-05-06 11:03 47.30269 10.44798 14408 ft 307 kts 106°
2026-05-06 11:04 47.29849 10.47837 13970 ft 296 kts 106°
2026-05-06 11:04 47.29440 10.50781 13844 ft 297 kts 105°
2026-05-06 11:04 47.29007 10.53857 13834 ft 322 kts 105°
2026-05-06 11:04 47.28600 10.57238 13815 ft 348 kts 97°
2026-05-06 11:05 47.28669 10.60866 13642 ft 367 kts 89°
2026-05-06 11:05 47.28885 10.64656 13188 ft 375 kts 87°
2026-05-06 11:05 47.29115 10.68508 12380 ft 384 kts 88°
2026-05-06 11:05 47.29336 10.72484 11649 ft 399 kts 88°
2026-05-06 11:06 47.29553 10.76534 10963 ft 397 kts 88°
2026-05-06 11:06 47.29760 10.80522 10425 ft 390 kts 87°
2026-05-06 11:06 47.29961 10.84439 9758 ft 371 kts 87°
2026-05-06 11:06 47.30145 10.88086 9182 ft 351 kts 87°
2026-05-06 11:07 47.30318 10.91591 8629 ft 334 kts 87°
2026-05-06 11:07 47.30476 10.94859 8113 ft 317 kts 87°
2026-05-06 11:07 47.30629 10.98011 7614 ft 301 kts 87°
2026-05-06 11:07 47.30772 11.01002 7140 ft 286 kts 87°
2026-05-06 11:08 47.30909 11.03875 6688 ft 273 kts 87°
2026-05-06 11:08 47.30980 11.06600 6249 ft 261 kts 96°
2026-05-06 11:08 47.30490 11.09070 5846 ft 249 kts 116°
2026-05-06 11:08 47.29714 11.11296 5464 ft 239 kts 116°
2026-05-06 11:09 47.28999 11.13434 5097 ft 230 kts 116°
2026-05-06 11:09 47.28317 11.15497 4744 ft 225 kts 115°
2026-05-06 11:09 47.27636 11.17568 4388 ft 225 kts 116°
2026-05-06 11:09 47.26954 11.19637 4028 ft 221 kts 116°
2026-05-06 11:10 47.26296 11.21631 3704 ft 213 kts 116°
2026-05-06 11:10 47.25689 11.23478 3420 ft 192 kts 116°
2026-05-06 11:10 47.25224 11.25229 3094 ft 177 kts 102°
2026-05-06 11:10 47.25202 11.26883 3063 ft 147 kts 86°
2026-05-06 11:11 47.25344 11.28268 2904 ft 132 kts 83°
2026-05-06 11:11 47.25542 11.29613 2633 ft 135 kts 84°
2026-05-06 11:11 47.25673 11.30913 2311 ft 129 kts 86°
2026-05-06 11:11 47.25831 11.32260 2112 ft 129 kts 90°
2026-05-06 11:12 47.25943 11.33550 1976 ft 119 kts 89°
2026-05-06 11:12 47.26044 11.34643 1917 ft 84 kts 77°
2026-05-06 11:12 47.26104 11.35107 1915 ft 26 kts 83°
2026-05-06 11:12 47.26102 11.35236 1914 ft 11 kts 126°
2026-05-06 11:13 47.25920 11.35291 1913 ft 11 kts 170°
2026-05-06 11:13 47.25868 11.35304 1913 ft 0 kts 170°
2026-05-06 11:13 47.25865 11.35304 1913 ft 2 kts 170°
2026-05-06 11:13 47.25858 11.35306 1913 ft 0 kts 170°